CheckWX is a tool to help pilots better visualize weather data.  It is not intended as a substitute for an official pre-flight weather briefing.

05:17:53 UTC

KHFJ METAR
Monett Regional Airport
Monett, Missouri, USA
Current

23 mins ago

KHFJ 200455Z AUTO 10004KT 7SM UP OVC010 00/00 A2991 RMK AO2 LTG DSNT SE P0001
Observed
Feb-20 @ 04:55 UTC
Wind
  • 100° at 4 KTS
Visibility
11,265 meters
Flight Rules
MVFR
Conditions
Unknown precipitation
Cloud Levels
  • Overcast at 1,000' AGL
Temperature
C / 32°F
Dewpoint
C / 32°F
Humidity
100%
Altimeter
29.91" Hg
Pressure
1012.92 hPa
Current Rain
0.01"
Previous

43 mins ago

KHFJ 200435Z AUTO 13004KT 4SM UP OVC008 00/00 A2993 RMK AO2 P0001
Observed
Feb-20 @ 04:35 UTC
Wind
  • 130° at 4 KTS
Visibility
6,437 meters
Flight Rules
IFR
Conditions
Unknown precipitation
Cloud Levels
  • Overcast at 800' AGL
Temperature
C / 32°F
Dewpoint
C / 32°F
Humidity
100%
Altimeter
29.93" Hg
Pressure
1013.52 hPa
Current Rain
0.01"
Previous

1 hour ago

KHFJ 200415Z AUTO 14006KT 7SM OVC008 00/00 A2994 RMK AO2
Observed
Feb-20 @ 04:15 UTC
Wind
  • 140° at 6 KTS
Visibility
11,265 meters
Flight Rules
IFR
Cloud Levels
  • Overcast at 800' AGL
Temperature
C / 32°F
Dewpoint
C / 32°F
Humidity
100%
Altimeter
29.94" Hg
Pressure
1013.92 hPa